createdAt,value
2022-08-01T00:01:35.093Z,22.80
2022-08-01T00:06:34.711Z,22.80
2022-08-01T00:11:33.229Z,22.80
2022-08-01T00:16:31.488Z,22.80
2022-08-01T00:21:29.657Z,22.80
2022-08-01T00:26:29.255Z,22.80
2022-08-01T00:31:27.467Z,22.80
2022-08-01T00:36:25.714Z,22.80
2022-08-01T00:41:23.898Z,22.80
2022-08-01T00:46:23.800Z,22.80
2022-08-01T00:51:22.000Z,22.80
2022-08-01T00:56:21.735Z,22.80
2022-08-01T01:01:21.653Z,22.80
2022-08-01T01:06:43.361Z,22.70
2022-08-01T01:11:49.811Z,22.70
2022-08-01T01:16:49.658Z,22.70
2022-08-01T01:22:21.062Z,22.70
2022-08-01T01:27:26.423Z,22.70
2022-08-01T01:32:34.658Z,22.70
2022-08-01T01:37:35.030Z,22.70
2022-08-01T01:42:35.256Z,22.70
2022-08-01T01:47:36.462Z,22.70
2022-08-01T01:52:35.852Z,22.70
2022-08-01T01:57:38.122Z,22.70
2022-08-01T02:02:38.973Z,22.70
2022-08-01T02:07:37.973Z,22.70
2022-08-01T02:12:39.865Z,22.60
2022-08-01T02:17:44.519Z,22.60
2022-08-01T02:22:46.728Z,22.60
2022-08-01T02:27:49.581Z,22.60
2022-08-01T02:32:52.057Z,22.60
2022-08-01T02:37:51.454Z,22.60
2022-08-01T02:42:52.586Z,22.60
2022-08-01T02:47:53.189Z,22.60
2022-08-01T02:52:54.864Z,22.50
2022-08-01T02:57:56.769Z,22.50
2022-08-01T03:03:01.961Z,22.50
2022-08-01T03:08:03.777Z,22.50
2022-08-01T03:13:04.991Z,22.50
2022-08-01T03:18:06.545Z,22.40
2022-08-01T03:23:08.264Z,22.40
2022-08-01T03:28:08.844Z,22.40
2022-08-01T03:33:08.873Z,22.40
2022-08-01T03:38:16.267Z,22.40
2022-08-01T03:43:21.307Z,22.30
2022-08-01T03:48:24.675Z,22.30
2022-08-01T03:53:26.833Z,22.30
2022-08-01T03:58:25.437Z,22.30
2022-08-01T04:03:25.607Z,22.30
2022-08-01T04:08:23.818Z,22.30
2022-08-01T04:13:36.987Z,22.30
2022-08-01T04:18:37.025Z,22.20
2022-08-01T04:23:37.368Z,22.20
2022-08-01T04:28:38.300Z,22.20
2022-08-01T04:33:40.020Z,22.20
2022-08-01T04:38:39.134Z,22.20
2022-08-01T04:43:37.861Z,22.20
2022-08-01T04:48:40.078Z,22.20
2022-08-01T04:53:38.350Z,22.20
2022-08-01T04:58:36.579Z,22.20
2022-08-01T05:03:38.836Z,22.20
2022-08-01T05:08:38.797Z,22.20
2022-08-01T05:13:37.013Z,22.20
2022-08-01T05:18:35.376Z,22.20
2022-08-01T05:23:42.870Z,22.20
2022-08-01T05:28:43.576Z,22.20
2022-08-01T05:33:41.765Z,22.30
2022-08-01T05:38:39.975Z,22.30
2022-08-01T05:43:38.220Z,22.30
2022-08-01T05:48:37.800Z,22.30
2022-08-01T05:53:36.322Z,22.30
2022-08-01T05:58:34.514Z,22.40
2022-08-01T06:03:34.295Z,22.40
2022-08-01T06:08:34.346Z,22.40
2022-08-01T06:13:32.609Z,22.40
2022-08-01T06:18:43.098Z,22.40
2022-08-01T06:23:43.517Z,22.40
2022-08-01T06:28:41.786Z,22.40
2022-08-01T06:33:40.054Z,22.40
2022-08-01T06:38:38.296Z,22.40
2022-08-01T06:43:37.921Z,22.40
2022-08-01T06:48:40.296Z,22.40
2022-08-01T06:53:39.976Z,22.30
2022-08-01T06:58:39.627Z,22.40
2022-08-01T07:03:54.103Z,22.30
2022-08-01T07:08:54.105Z,22.40
2022-08-01T07:13:53.734Z,22.40
2022-08-01T07:18:52.281Z,22.40
2022-08-01T07:23:50.489Z,22.40
2022-08-01T07:28:48.979Z,22.40
2022-08-01T07:33:49.470Z,22.50
2022-08-01T07:38:48.528Z,22.50
2022-08-01T07:43:57.143Z,22.50
2022-08-01T07:48:58.579Z,22.50
2022-08-01T07:53:57.088Z,22.60
2022-08-01T07:58:55.455Z,22.60
2022-08-01T08:03:53.751Z,22.60
2022-08-01T08:08:54.500Z,22.60
2022-08-01T08:13:52.888Z,22.70
2022-08-01T08:18:51.523Z,22.70
2022-08-01T08:24:06.257Z,22.80
2022-08-01T08:29:06.051Z,22.80
2022-08-01T08:34:04.451Z,22.80
2022-08-01T08:39:03.036Z,22.80
2022-08-01T08:44:02.897Z,22.80
2022-08-01T08:49:06.546Z,22.90
2022-08-01T08:54:06.286Z,23.00
2022-08-01T08:59:05.131Z,23.10
2022-08-01T09:04:05.097Z,23.10
2022-08-01T09:09:03.276Z,23.10
2022-08-01T09:14:08.178Z,23.20
2022-08-01T09:19:16.014Z,23.30
2022-08-01T09:24:18.575Z,23.30
2022-08-01T09:29:37.695Z,23.30
2022-08-01T09:34:38.784Z,23.30
2022-08-01T09:39:43.644Z,23.50
2022-08-01T09:44:44.821Z,23.50
2022-08-01T09:49:59.412Z,23.60
2022-08-01T09:55:00.454Z,23.60
2022-08-01T10:00:01.356Z,23.70
2022-08-01T10:05:03.634Z,23.70
2022-08-01T10:10:13.138Z,23.70
2022-08-01T10:15:14.225Z,23.80
2022-08-01T10:20:29.841Z,23.90
2022-08-01T10:25:41.938Z,24.00
2022-08-01T10:30:44.483Z,24.10
2022-08-01T10:35:48.210Z,24.10
2022-08-01T10:40:47.493Z,24.30
2022-08-01T10:45:46.246Z,24.40
2022-08-01T10:50:48.916Z,24.40
2022-08-01T10:55:55.030Z,24.60
2022-08-01T11:01:23.111Z,24.70
2022-08-01T11:06:26.408Z,24.80
2022-08-01T11:11:24.744Z,24.90
2022-08-01T11:16:29.216Z,24.90
2022-08-01T11:22:04.777Z,25.00
2022-08-01T11:27:20.549Z,25.10
2022-08-01T11:32:26.995Z,25.30
2022-08-01T11:37:30.490Z,25.30
2022-08-01T11:42:29.947Z,25.30
2022-08-01T11:47:47.056Z,25.40
2022-08-01T11:52:47.149Z,25.70
2022-08-01T11:57:45.493Z,25.90
2022-08-01T12:02:47.683Z,26.00
2022-08-01T12:07:51.408Z,26.10
2022-08-01T12:12:50.802Z,26.20
2022-08-01T12:17:58.593Z,26.20
2022-08-01T12:23:00.315Z,26.40
2022-08-01T12:28:02.642Z,26.50
2022-08-01T12:33:00.909Z,26.60
2022-08-01T12:38:02.146Z,26.80
2022-08-01T12:43:03.129Z,26.80
2022-08-01T12:48:02.020Z,26.80
2022-08-01T12:53:01.696Z,27.00
2022-08-01T12:58:07.273Z,27.20
2022-08-01T13:03:07.514Z,27.30
2022-08-01T13:08:12.315Z,27.30
2022-08-01T13:13:11.347Z,27.10
2022-08-01T13:18:29.016Z,27.10
2022-08-01T13:24:01.791Z,26.90
2022-08-01T13:28:46.879Z,26.90
2022-08-01T13:33:54.128Z,27.00
2022-08-01T13:39:18.205Z,27.10
2022-08-01T13:44:16.927Z,27.00
2022-08-01T13:49:16.304Z,26.80
2022-08-01T13:54:16.219Z,26.60
2022-08-01T13:59:14.667Z,26.60
2022-08-01T14:04:12.948Z,26.50
2022-08-01T14:09:17.371Z,26.60
2022-08-01T14:14:18.092Z,26.80
2022-08-01T14:19:17.584Z,26.80
2022-08-01T14:24:18.030Z,26.80
2022-08-01T14:29:17.731Z,26.70
2022-08-01T14:34:16.816Z,26.70
2022-08-01T14:39:15.314Z,26.70
2022-08-01T14:44:13.524Z,26.70
2022-08-01T14:49:13.077Z,26.90
2022-08-01T14:54:11.314Z,26.70
2022-08-01T14:59:21.352Z,26.70
2022-08-01T15:04:21.582Z,26.70
2022-08-01T15:09:19.815Z,26.80
2022-08-01T15:14:35.558Z,26.60
2022-08-01T15:19:38.992Z,26.70
2022-08-01T15:24:40.624Z,26.60
2022-08-01T15:29:39.244Z,26.30
2022-08-01T15:34:39.312Z,26.30
2022-08-01T15:39:37.930Z,26.40
2022-08-01T15:44:36.316Z,26.20
2022-08-01T15:49:37.045Z,25.90
2022-08-01T15:54:37.575Z,26.00
2022-08-01T15:59:38.975Z,26.20
2022-08-01T16:04:39.974Z,26.40
2022-08-01T16:09:39.643Z,26.20
2022-08-01T16:14:38.085Z,26.20
2022-08-01T16:19:36.507Z,26.20
2022-08-01T16:24:36.391Z,26.10
2022-08-01T16:29:36.090Z,26.20
2022-08-01T16:34:34.651Z,26.20
2022-08-01T16:39:35.161Z,26.10
2022-08-01T16:44:35.081Z,26.10
2022-08-01T16:49:33.574Z,26.00
2022-08-01T16:54:32.155Z,25.80
2022-08-01T16:59:30.380Z,25.70
2022-08-01T17:04:33.268Z,25.50
2022-08-01T17:09:31.664Z,25.50
2022-08-01T17:14:30.517Z,25.40
2022-08-01T17:19:33.011Z,25.30
2022-08-01T17:24:33.030Z,25.30
2022-08-01T17:29:43.339Z,25.30
2022-08-01T17:34:43.109Z,25.20
2022-08-01T17:39:42.927Z,25.10
2022-08-01T17:44:41.743Z,25.20
2022-08-01T17:49:54.642Z,25.00
2022-08-01T17:54:54.938Z,24.90
2022-08-01T17:59:53.328Z,24.70
2022-08-01T18:04:52.336Z,24.60
2022-08-01T18:09:50.863Z,24.60
2022-08-01T18:14:50.602Z,24.50
2022-08-01T18:19:48.992Z,24.50
2022-08-01T18:24:47.204Z,24.40
2022-08-01T18:29:47.610Z,24.30
2022-08-01T18:34:48.461Z,24.20
2022-08-01T18:39:47.478Z,24.20
2022-08-01T18:44:45.683Z,24.00
2022-08-01T18:49:43.966Z,23.90
2022-08-01T18:54:43.491Z,23.80
2022-08-01T18:59:41.712Z,23.70
2022-08-01T19:04:40.426Z,23.60
2022-08-01T19:09:39.803Z,23.40
2022-08-01T19:14:39.316Z,23.30
2022-08-01T19:19:37.564Z,23.20
2022-08-01T19:24:35.735Z,23.10
2022-08-01T19:29:36.441Z,22.90
2022-08-01T19:34:38.048Z,22.80
2022-08-01T19:39:36.264Z,22.70
2022-08-01T19:44:35.169Z,22.60
2022-08-01T19:49:35.018Z,22.50
2022-08-01T19:54:36.183Z,22.40
2022-08-01T19:59:37.095Z,22.30
2022-08-01T20:04:37.344Z,22.10
2022-08-01T20:09:36.067Z,22.00
2022-08-01T20:14:34.534Z,21.90
2022-08-01T20:19:33.051Z,21.70
2022-08-01T20:24:41.124Z,21.60
2022-08-01T20:29:40.444Z,21.50
2022-08-01T20:34:39.868Z,21.50
2022-08-01T20:39:40.138Z,21.40
2022-08-01T20:44:41.283Z,21.30
2022-08-01T20:49:39.625Z,21.20
2022-08-01T20:54:39.317Z,21.20
2022-08-01T20:59:55.790Z,21.10
2022-08-01T21:05:01.865Z,21.00
2022-08-01T21:10:07.000Z,20.90
2022-08-01T21:15:06.181Z,20.90
2022-08-01T21:20:07.514Z,20.90
2022-08-01T21:25:11.009Z,20.90
2022-08-01T21:30:10.791Z,20.80
2022-08-01T21:35:16.434Z,20.70
2022-08-01T21:40:20.720Z,20.60
2022-08-01T21:45:21.800Z,20.60
2022-08-01T21:50:20.161Z,20.50
2022-08-01T21:55:35.121Z,20.40
2022-08-01T22:00:38.081Z,20.40
2022-08-01T22:05:49.521Z,20.30
2022-08-01T22:10:55.286Z,20.20
2022-08-01T22:15:55.278Z,20.20
2022-08-01T22:20:54.854Z,20.10
2022-08-01T22:25:55.858Z,20.20
2022-08-01T22:30:54.607Z,19.90
2022-08-01T22:35:53.583Z,19.80
2022-08-01T22:40:55.362Z,19.80
2022-08-01T22:46:11.218Z,19.70
2022-08-01T22:51:20.624Z,19.70
2022-08-01T22:56:21.650Z,19.60
2022-08-01T23:01:26.760Z,19.50
2022-08-01T23:06:31.661Z,19.40
2022-08-01T23:11:31.317Z,19.30
2022-08-01T23:16:30.338Z,19.20
2022-08-01T23:21:29.525Z,19.20
2022-08-01T23:26:29.687Z,19.10
2022-08-01T23:32:00.456Z,19.00
2022-08-01T23:36:49.114Z,18.90
2022-08-01T23:41:58.409Z,18.80
2022-08-01T23:46:59.331Z,18.80
2022-08-01T23:51:57.567Z,18.70
2022-08-01T23:56:55.903Z,18.70
